sensor_id;sensor_type;location;lat;lon;timestamp;P1;durP1;ratioP1;P2;durP2;ratioP2
54193;SDS011;40102;50.906;6.972;2022-07-23T00:02:19;11.75;;;7.90;;
54193;SDS011;40102;50.906;6.972;2022-07-23T00:04:44;9.32;;;7.28;;
54193;SDS011;40102;50.906;6.972;2022-07-23T00:07:10;12.07;;;7.82;;
54193;SDS011;40102;50.906;6.972;2022-07-23T00:09:35;11.23;;;8.10;;
54193;SDS011;40102;50.906;6.972;2022-07-23T00:12:01;10.55;;;7.75;;
54193;SDS011;40102;50.906;6.972;2022-07-23T00:14:26;10.52;;;7.18;;
54193;SDS011;40102;50.906;6.972;2022-07-23T00:16:52;8.60;;;7.22;;
54193;SDS011;40102;50.906;6.972;2022-07-23T00:19:17;9.80;;;7.28;;
54193;SDS011;40102;50.906;6.972;2022-07-23T00:21:42;11.30;;;7.85;;
54193;SDS011;40102;50.906;6.972;2022-07-23T00:24:08;11.13;;;7.57;;
54193;SDS011;40102;50.906;6.972;2022-07-23T00:26:33;9.88;;;7.28;;
54193;SDS011;40102;50.906;6.972;2022-07-23T00:28:58;9.88;;;6.70;;
54193;SDS011;40102;50.906;6.972;2022-07-23T00:31:24;9.32;;;6.95;;
54193;SDS011;40102;50.906;6.972;2022-07-23T00:33:49;9.95;;;6.15;;
54193;SDS011;40102;50.906;6.972;2022-07-23T00:36:14;8.82;;;6.43;;
54193;SDS011;40102;50.906;6.972;2022-07-23T00:38:40;9.75;;;6.22;;
54193;SDS011;40102;50.906;6.972;2022-07-23T00:41:05;8.70;;;6.13;;
54193;SDS011;40102;50.906;6.972;2022-07-23T00:43:30;10.55;;;6.38;;
54193;SDS011;40102;50.906;6.972;2022-07-23T00:45:56;11.18;;;7.75;;
54193;SDS011;40102;50.906;6.972;2022-07-23T00:48:21;13.90;;;7.60;;
54193;SDS011;40102;50.906;6.972;2022-07-23T00:50:47;9.02;;;6.40;;
54193;SDS011;40102;50.906;6.972;2022-07-23T00:53:12;9.60;;;6.15;;
54193;SDS011;40102;50.906;6.972;2022-07-23T00:55:38;8.30;;;6.28;;
54193;SDS011;40102;50.906;6.972;2022-07-23T00:58:04;8.07;;;5.75;;
54193;SDS011;40102;50.906;6.972;2022-07-23T01:00:31;8.85;;;5.53;;
54193;SDS011;40102;50.906;6.972;2022-07-23T01:02:56;6.90;;;4.80;;
54193;SDS011;40102;50.906;6.972;2022-07-23T01:05:22;6.22;;;4.88;;
54193;SDS011;40102;50.906;6.972;2022-07-23T01:07:48;6.13;;;4.75;;
54193;SDS011;40102;50.906;6.972;2022-07-23T01:10:14;6.40;;;4.20;;
54193;SDS011;40102;50.906;6.972;2022-07-23T01:12:59;7.13;;;4.40;;
54193;SDS011;40102;50.906;6.972;2022-07-23T01:15:26;6.40;;;4.07;;
54193;SDS011;40102;50.906;6.972;2022-07-23T01:17:51;6.22;;;4.43;;
54193;SDS011;40102;50.906;6.972;2022-07-23T01:20:18;5.28;;;4.25;;
54193;SDS011;40102;50.906;6.972;2022-07-23T01:22:43;8.18;;;5.47;;
54193;SDS011;40102;50.906;6.972;2022-07-23T01:25:09;6.68;;;4.93;;
54193;SDS011;40102;50.906;6.972;2022-07-23T01:27:35;8.07;;;4.90;;
54193;SDS011;40102;50.906;6.972;2022-07-23T01:30:00;6.60;;;5.10;;
54193;SDS011;40102;50.906;6.972;2022-07-23T01:32:26;7.50;;;5.10;;
54193;SDS011;40102;50.906;6.972;2022-07-23T01:34:51;8.73;;;4.95;;
54193;SDS011;40102;50.906;6.972;2022-07-23T01:37:17;9.63;;;5.75;;
54193;SDS011;40102;50.906;6.972;2022-07-23T01:39:42;6.80;;;5.20;;
54193;SDS011;40102;50.906;6.972;2022-07-23T01:42:08;6.13;;;4.70;;
54193;SDS011;40102;50.906;6.972;2022-07-23T01:44:33;7.95;;;4.88;;
54193;SDS011;40102;50.906;6.972;2022-07-23T01:46:58;8.48;;;5.10;;
54193;SDS011;40102;50.906;6.972;2022-07-23T01:49:24;8.20;;;5.60;;
54193;SDS011;40102;50.906;6.972;2022-07-23T01:51:49;7.10;;;4.90;;
54193;SDS011;40102;50.906;6.972;2022-07-23T01:54:30;7.88;;;4.97;;
54193;SDS011;40102;50.906;6.972;2022-07-23T01:56:57;7.45;;;5.15;;
54193;SDS011;40102;50.906;6.972;2022-07-23T01:59:23;6.13;;;4.82;;
54193;SDS011;40102;50.906;6.972;2022-07-23T02:01:49;10.00;;;6.03;;
54193;SDS011;40102;50.906;6.972;2022-07-23T02:04:18;8.73;;;5.20;;
54193;SDS011;40102;50.906;6.972;2022-07-23T02:06:47;8.27;;;5.68;;
54193;SDS011;40102;50.906;6.972;2022-07-23T02:09:13;8.30;;;6.15;;
54193;SDS011;40102;50.906;6.972;2022-07-23T02:11:39;9.18;;;6.18;;
54193;SDS011;40102;50.906;6.972;2022-07-23T02:14:04;6.13;;;4.95;;
54193;SDS011;40102;50.906;6.972;2022-07-23T02:16:30;6.45;;;4.88;;
54193;SDS011;40102;50.906;6.972;2022-07-23T02:18:55;6.65;;;4.88;;
54193;SDS011;40102;50.906;6.972;2022-07-23T02:21:21;11.13;;;6.47;;
54193;SDS011;40102;50.906;6.972;2022-07-23T02:23:46;7.72;;;5.75;;
54193;SDS011;40102;50.906;6.972;2022-07-23T02:26:11;6.22;;;4.65;;
54193;SDS011;40102;50.906;6.972;2022-07-23T02:28:37;7.22;;;5.05;;
54193;SDS011;40102;50.906;6.972;2022-07-23T02:31:02;6.55;;;4.60;;
54193;SDS011;40102;50.906;6.972;2022-07-23T02:33:28;7.13;;;5.07;;
54193;SDS011;40102;50.906;6.972;2022-07-23T02:35:54;6.72;;;5.10;;
54193;SDS011;40102;50.906;6.972;2022-07-23T02:38:19;5.40;;;4.40;;
54193;SDS011;40102;50.906;6.972;2022-07-23T02:40:44;6.53;;;4.93;;
54193;SDS011;40102;50.906;6.972;2022-07-23T02:43:09;9.38;;;6.07;;
54193;SDS011;40102;50.906;6.972;2022-07-23T02:45:35;7.85;;;5.65;;
54193;SDS011;40102;50.906;6.972;2022-07-23T02:48:00;8.70;;;5.25;;
54193;SDS011;40102;50.906;6.972;2022-07-23T02:50:26;7.05;;;4.57;;
54193;SDS011;40102;50.906;6.972;2022-07-23T02:52:51;8.02;;;4.90;;
54193;SDS011;40102;50.906;6.972;2022-07-23T02:55:16;6.78;;;5.13;;
54193;SDS011;40102;50.906;6.972;2022-07-23T02:57:42;10.90;;;5.43;;
54193;SDS011;40102;50.906;6.972;2022-07-23T03:00:07;7.22;;;4.93;;
54193;SDS011;40102;50.906;6.972;2022-07-23T03:02:33;9.32;;;6.03;;
54193;SDS011;40102;50.906;6.972;2022-07-23T03:04:59;7.22;;;5.15;;
54193;SDS011;40102;50.906;6.972;2022-07-23T03:07:24;7.15;;;5.20;;
54193;SDS011;40102;50.906;6.972;2022-07-23T03:09:50;6.38;;;5.15;;
54193;SDS011;40102;50.906;6.972;2022-07-23T03:12:15;7.22;;;5.45;;
54193;SDS011;40102;50.906;6.972;2022-07-23T03:14:41;8.27;;;5.63;;
54193;SDS011;40102;50.906;6.972;2022-07-23T03:17:06;6.88;;;5.60;;
54193;SDS011;40102;50.906;6.972;2022-07-23T03:19:32;9.23;;;6.57;;
54193;SDS011;40102;50.906;6.972;2022-07-23T03:21:57;11.32;;;7.35;;
54193;SDS011;40102;50.906;6.972;2022-07-23T03:24:22;9.25;;;6.75;;
54193;SDS011;40102;50.906;6.972;2022-07-23T03:27:08;9.73;;;6.90;;
54193;SDS011;40102;50.906;6.972;2022-07-23T03:29:33;10.88;;;6.90;;
54193;SDS011;40102;50.906;6.972;2022-07-23T03:31:58;9.93;;;6.55;;
54193;SDS011;40102;50.906;6.972;2022-07-23T03:34:24;8.40;;;5.72;;
54193;SDS011;40102;50.906;6.972;2022-07-23T03:36:49;8.20;;;5.43;;
54193;SDS011;40102;50.906;6.972;2022-07-23T03:39:14;11.35;;;7.03;;
54193;SDS011;40102;50.906;6.972;2022-07-23T03:41:40;9.30;;;6.15;;
54193;SDS011;40102;50.906;6.972;2022-07-23T03:44:05;7.40;;;5.32;;
54193;SDS011;40102;50.906;6.972;2022-07-23T03:46:30;8.05;;;5.82;;
54193;SDS011;40102;50.906;6.972;2022-07-23T03:48:56;9.07;;;6.25;;
54193;SDS011;40102;50.906;6.972;2022-07-23T03:51:21;9.43;;;6.65;;
54193;SDS011;40102;50.906;6.972;2022-07-23T03:53:46;8.93;;;6.80;;
54193;SDS011;40102;50.906;6.972;2022-07-23T03:56:14;8.77;;;6.50;;
54193;SDS011;40102;50.906;6.972;2022-07-23T03:58:39;9.10;;;6.28;;
54193;SDS011;40102;50.906;6.972;2022-07-23T04:01:04;9.65;;;6.80;;
54193;SDS011;40102;50.906;6.972;2022-07-23T04:03:30;9.90;;;6.75;;
54193;SDS011;40102;50.906;6.972;2022-07-23T04:05:55;7.35;;;5.68;;
54193;SDS011;40102;50.906;6.972;2022-07-23T04:08:21;8.13;;;5.60;;
54193;SDS011;40102;50.906;6.972;2022-07-23T04:10:47;7.78;;;5.60;;
54193;SDS011;40102;50.906;6.972;2022-07-23T04:13:12;9.25;;;6.53;;
54193;SDS011;40102;50.906;6.972;2022-07-23T04:15:37;8.65;;;6.25;;
54193;SDS011;40102;50.906;6.972;2022-07-23T04:18:03;9.45;;;6.80;;
54193;SDS011;40102;50.906;6.972;2022-07-23T04:20:28;10.65;;;6.55;;
54193;SDS011;40102;50.906;6.972;2022-07-23T04:22:53;8.63;;;6.82;;
54193;SDS011;40102;50.906;6.972;2022-07-23T04:25:19;9.18;;;5.88;;
54193;SDS011;40102;50.906;6.972;2022-07-23T04:27:44;8.10;;;5.78;;
54193;SDS011;40102;50.906;6.972;2022-07-23T04:30:10;11.75;;;6.97;;
54193;SDS011;40102;50.906;6.972;2022-07-23T04:32:35;9.57;;;6.57;;
54193;SDS011;40102;50.906;6.972;2022-07-23T04:35:01;11.63;;;6.90;;
54193;SDS011;40102;50.906;6.972;2022-07-23T04:37:27;9.82;;;6.43;;
54193;SDS011;40102;50.906;6.972;2022-07-23T04:39:52;12.35;;;7.53;;
54193;SDS011;40102;50.906;6.972;2022-07-23T04:42:18;9.55;;;6.53;;
54193;SDS011;40102;50.906;6.972;2022-07-23T04:44:43;9.43;;;6.25;;
54193;SDS011;40102;50.906;6.972;2022-07-23T04:47:09;9.38;;;6.07;;
54193;SDS011;40102;50.906;6.972;2022-07-23T04:49:35;9.20;;;5.97;;
54193;SDS011;40102;50.906;6.972;2022-07-23T04:52:01;9.70;;;6.55;;
54193;SDS011;40102;50.906;6.972;2022-07-23T04:54:26;8.02;;;6.00;;
54193;SDS011;40102;50.906;6.972;2022-07-23T04:56:51;9.13;;;6.10;;
54193;SDS011;40102;50.906;6.972;2022-07-23T04:59:17;11.18;;;7.18;;
54193;SDS011;40102;50.906;6.972;2022-07-23T05:01:42;8.13;;;6.28;;
54193;SDS011;40102;50.906;6.972;2022-07-23T05:04:08;10.63;;;6.57;;
54193;SDS011;40102;50.906;6.972;2022-07-23T05:06:33;8.10;;;6.07;;
54193;SDS011;40102;50.906;6.972;2022-07-23T05:08:58;11.73;;;7.45;;
54193;SDS011;40102;50.906;6.972;2022-07-23T05:11:24;13.75;;;9.13;;
54193;SDS011;40102;50.906;6.972;2022-07-23T05:13:49;13.88;;;9.20;;
54193;SDS011;40102;50.906;6.972;2022-07-23T05:16:14;12.85;;;8.38;;
54193;SDS011;40102;50.906;6.972;2022-07-23T05:18:40;9.98;;;6.65;;
54193;SDS011;40102;50.906;6.972;2022-07-23T05:21:05;10.02;;;7.15;;
54193;SDS011;40102;50.906;6.972;2022-07-23T05:23:30;12.73;;;8.27;;
54193;SDS011;40102;50.906;6.972;2022-07-23T05:25:56;11.48;;;7.70;;
54193;SDS011;40102;50.906;6.972;2022-07-23T05:28:21;12.15;;;7.63;;
54193;SDS011;40102;50.906;6.972;2022-07-23T05:30:47;12.15;;;8.68;;
54193;SDS011;40102;50.906;6.972;2022-07-23T05:33:12;13.15;;;8.73;;
54193;SDS011;40102;50.906;6.972;2022-07-23T05:35:37;13.65;;;8.85;;
54193;SDS011;40102;50.906;6.972;2022-07-23T05:38:03;9.85;;;6.97;;
54193;SDS011;40102;50.906;6.972;2022-07-23T05:40:28;10.23;;;7.18;;
54193;SDS011;40102;50.906;6.972;2022-07-23T05:42:54;10.45;;;6.68;;
54193;SDS011;40102;50.906;6.972;2022-07-23T05:45:19;11.02;;;6.13;;
54193;SDS011;40102;50.906;6.972;2022-07-23T05:47:48;11.13;;;6.78;;
54193;SDS011;40102;50.906;6.972;2022-07-23T05:50:14;11.53;;;7.23;;
54193;SDS011;40102;50.906;6.972;2022-07-23T05:52:40;13.07;;;8.23;;
54193;SDS011;40102;50.906;6.972;2022-07-23T05:55:06;12.77;;;8.52;;
54193;SDS011;40102;50.906;6.972;2022-07-23T05:57:33;11.80;;;7.22;;
54193;SDS011;40102;50.906;6.972;2022-07-23T05:59:58;11.10;;;7.05;;
54193;SDS011;40102;50.906;6.972;2022-07-23T06:02:23;11.70;;;6.70;;
54193;SDS011;40102;50.906;6.972;2022-07-23T06:04:49;9.50;;;6.35;;
54193;SDS011;40102;50.906;6.972;2022-07-23T06:07:14;11.60;;;7.60;;
54193;SDS011;40102;50.906;6.972;2022-07-23T06:09:40;10.68;;;6.72;;
54193;SDS011;40102;50.906;6.972;2022-07-23T06:12:05;12.63;;;7.00;;
54193;SDS011;40102;50.906;6.972;2022-07-23T06:14:31;10.45;;;6.20;;
54193;SDS011;40102;50.906;6.972;2022-07-23T06:16:56;12.30;;;6.53;;
54193;SDS011;40102;50.906;6.972;2022-07-23T06:19:21;12.20;;;7.00;;
54193;SDS011;40102;50.906;6.972;2022-07-23T06:21:47;10.68;;;6.80;;
54193;SDS011;40102;50.906;6.972;2022-07-23T06:24:12;14.50;;;7.45;;
54193;SDS011;40102;50.906;6.972;2022-07-23T06:26:37;9.93;;;5.90;;
54193;SDS011;40102;50.906;6.972;2022-07-23T06:29:03;9.18;;;5.95;;
54193;SDS011;40102;50.906;6.972;2022-07-23T06:31:28;8.18;;;5.45;;
54193;SDS011;40102;50.906;6.972;2022-07-23T06:33:54;7.65;;;4.80;;
54193;SDS011;40102;50.906;6.972;2022-07-23T06:36:19;10.45;;;6.00;;
54193;SDS011;40102;50.906;6.972;2022-07-23T06:38:45;10.75;;;6.43;;
54193;SDS011;40102;50.906;6.972;2022-07-23T06:41:10;10.27;;;6.78;;
54193;SDS011;40102;50.906;6.972;2022-07-23T06:43:35;11.85;;;7.57;;
54193;SDS011;40102;50.906;6.972;2022-07-23T06:46:01;11.70;;;7.10;;
54193;SDS011;40102;50.906;6.972;2022-07-23T06:48:26;9.02;;;5.80;;
54193;SDS011;40102;50.906;6.972;2022-07-23T06:50:53;11.02;;;6.10;;
54193;SDS011;40102;50.906;6.972;2022-07-23T06:53:18;10.73;;;5.90;;
54193;SDS011;40102;50.906;6.972;2022-07-23T06:55:44;13.00;;;6.97;;
54193;SDS011;40102;50.906;6.972;2022-07-23T06:58:09;13.13;;;7.57;;
54193;SDS011;40102;50.906;6.972;2022-07-23T07:00:35;8.93;;;5.85;;
54193;SDS011;40102;50.906;6.972;2022-07-23T07:03:01;10.13;;;6.10;;
54193;SDS011;40102;50.906;6.972;2022-07-23T07:05:26;11.43;;;6.50;;
54193;SDS011;40102;50.906;6.972;2022-07-23T07:07:53;9.23;;;5.28;;
54193;SDS011;40102;50.906;6.972;2022-07-23T07:10:19;8.52;;;4.97;;
54193;SDS011;40102;50.906;6.972;2022-07-23T07:12:45;7.28;;;4.85;;
54193;SDS011;40102;50.906;6.972;2022-07-23T07:15:10;9.43;;;4.80;;
54193;SDS011;40102;50.906;6.972;2022-07-23T07:17:36;8.52;;;4.55;;
54193;SDS011;40102;50.906;6.972;2022-07-23T07:20:02;6.63;;;5.07;;
54193;SDS011;40102;50.906;6.972;2022-07-23T07:22:27;8.55;;;5.03;;
54193;SDS011;40102;50.906;6.972;2022-07-23T07:24:53;9.23;;;5.15;;
54193;SDS011;40102;50.906;6.972;2022-07-23T07:27:18;8.80;;;5.25;;
54193;SDS011;40102;50.906;6.972;2022-07-23T07:29:43;7.25;;;4.47;;
54193;SDS011;40102;50.906;6.972;2022-07-23T07:32:09;11.18;;;5.40;;
54193;SDS011;40102;50.906;6.972;2022-07-23T07:34:34;6.95;;;4.53;;
54193;SDS011;40102;50.906;6.972;2022-07-23T07:37:00;9.40;;;4.63;;
54193;SDS011;40102;50.906;6.972;2022-07-23T07:39:25;5.65;;;4.55;;
54193;SDS011;40102;50.906;6.972;2022-07-23T07:41:50;8.30;;;4.57;;
54193;SDS011;40102;50.906;6.972;2022-07-23T07:44:16;8.15;;;4.38;;
54193;SDS011;40102;50.906;6.972;2022-07-23T07:46:41;5.55;;;3.63;;
54193;SDS011;40102;50.906;6.972;2022-07-23T07:49:06;10.63;;;4.95;;
54193;SDS011;40102;50.906;6.972;2022-07-23T07:51:32;8.10;;;4.57;;
54193;SDS011;40102;50.906;6.972;2022-07-23T07:53:58;6.43;;;4.20;;
54193;SDS011;40102;50.906;6.972;2022-07-23T07:56:23;7.15;;;3.85;;
54193;SDS011;40102;50.906;6.972;2022-07-23T07:58:49;6.75;;;4.47;;
54193;SDS011;40102;50.906;6.972;2022-07-23T08:01:14;5.25;;;3.85;;
54193;SDS011;40102;50.906;6.972;2022-07-23T08:03:39;7.45;;;4.53;;
54193;SDS011;40102;50.906;6.972;2022-07-23T08:06:05;6.57;;;4.55;;
54193;SDS011;40102;50.906;6.972;2022-07-23T08:08:30;6.15;;;4.60;;
54193;SDS011;40102;50.906;6.972;2022-07-23T08:10:56;8.75;;;5.70;;
54193;SDS011;40102;50.906;6.972;2022-07-23T08:13:21;12.68;;;5.97;;
54193;SDS011;40102;50.906;6.972;2022-07-23T08:15:46;10.38;;;6.22;;
54193;SDS011;40102;50.906;6.972;2022-07-23T08:18:12;7.40;;;5.15;;
54193;SDS011;40102;50.906;6.972;2022-07-23T08:20:37;7.28;;;4.88;;
54193;SDS011;40102;50.906;6.972;2022-07-23T08:23:03;6.03;;;4.20;;
54193;SDS011;40102;50.906;6.972;2022-07-23T08:25:32;5.65;;;4.43;;
54193;SDS011;40102;50.906;6.972;2022-07-23T08:27:59;6.65;;;4.70;;
54193;SDS011;40102;50.906;6.972;2022-07-23T08:30:26;7.28;;;4.88;;
54193;SDS011;40102;50.906;6.972;2022-07-23T08:37:55;6.45;;;4.70;;
54193;SDS011;40102;50.906;6.972;2022-07-23T08:40:21;7.10;;;5.53;;
54193;SDS011;40102;50.906;6.972;2022-07-23T08:42:47;5.28;;;4.65;;
54193;SDS011;40102;50.906;6.972;2022-07-23T08:45:15;7.40;;;5.85;;
54193;SDS011;40102;50.906;6.972;2022-07-23T08:47:43;6.68;;;5.88;;
54193;SDS011;40102;50.906;6.972;2022-07-23T08:50:09;7.53;;;5.30;;
54193;SDS011;40102;50.906;6.972;2022-07-23T08:52:35;7.10;;;5.80;;
54193;SDS011;40102;50.906;6.972;2022-07-23T08:55:01;7.70;;;5.95;;
54193;SDS011;40102;50.906;6.972;2022-07-23T08:57:27;6.63;;;5.22;;
54193;SDS011;40102;50.906;6.972;2022-07-23T08:59:52;7.07;;;5.85;;
54193;SDS011;40102;50.906;6.972;2022-07-23T09:02:18;6.40;;;5.55;;
54193;SDS011;40102;50.906;6.972;2022-07-23T09:04:43;9.23;;;6.43;;
54193;SDS011;40102;50.906;6.972;2022-07-23T09:07:08;6.00;;;5.30;;
54193;SDS011;40102;50.906;6.972;2022-07-23T09:09:34;6.80;;;5.85;;
54193;SDS011;40102;50.906;6.972;2022-07-23T09:12:07;8.80;;;6.72;;
54193;SDS011;40102;50.906;6.972;2022-07-23T09:14:38;8.18;;;5.75;;
54193;SDS011;40102;50.906;6.972;2022-07-23T09:17:15;5.90;;;5.22;;
54193;SDS011;40102;50.906;6.972;2022-07-23T09:19:42;5.80;;;5.20;;
54193;SDS011;40102;50.906;6.972;2022-07-23T09:25:04;6.27;;;5.17;;
54193;SDS011;40102;50.906;6.972;2022-07-23T09:27:49;7.43;;;6.43;;
54193;SDS011;40102;50.906;6.972;2022-07-23T09:30:15;7.07;;;6.03;;
54193;SDS011;40102;50.906;6.972;2022-07-23T09:32:41;7.13;;;5.45;;
54193;SDS011;40102;50.906;6.972;2022-07-23T09:35:06;7.43;;;5.78;;
54193;SDS011;40102;50.906;6.972;2022-07-23T09:37:32;8.40;;;6.28;;
54193;SDS011;40102;50.906;6.972;2022-07-23T09:40:07;7.55;;;5.80;;
54193;SDS011;40102;50.906;6.972;2022-07-23T09:42:36;9.05;;;6.72;;
54193;SDS011;40102;50.906;6.972;2022-07-23T09:45:02;9.25;;;6.57;;
54193;SDS011;40102;50.906;6.972;2022-07-23T09:47:29;7.50;;;6.40;;
54193;SDS011;40102;50.906;6.972;2022-07-23T09:52:26;6.65;;;5.72;;
54193;SDS011;40102;50.906;6.972;2022-07-23T09:54:57;8.77;;;5.43;;
54193;SDS011;40102;50.906;6.972;2022-07-23T09:57:25;7.05;;;5.88;;
54193;SDS011;40102;50.906;6.972;2022-07-23T09:59:51;9.13;;;6.50;;
54193;SDS011;40102;50.906;6.972;2022-07-23T10:02:17;8.88;;;6.45;;
54193;SDS011;40102;50.906;6.972;2022-07-23T10:04:43;9.82;;;7.20;;
54193;SDS011;40102;50.906;6.972;2022-07-23T10:07:09;11.73;;;7.30;;
54193;SDS011;40102;50.906;6.972;2022-07-23T10:09:36;8.73;;;7.63;;
54193;SDS011;40102;50.906;6.972;2022-07-23T10:12:04;8.10;;;7.13;;
54193;SDS011;40102;50.906;6.972;2022-07-23T10:14:38;9.98;;;8.48;;
54193;SDS011;40102;50.906;6.972;2022-07-23T10:17:04;8.07;;;6.80;;
54193;SDS011;40102;50.906;6.972;2022-07-23T10:19:30;9.27;;;7.30;;
54193;SDS011;40102;50.906;6.972;2022-07-23T10:22:01;8.60;;;6.80;;
54193;SDS011;40102;50.906;6.972;2022-07-23T10:29:55;8.93;;;6.70;;
54193;SDS011;40102;50.906;6.972;2022-07-23T10:35:39;10.63;;;7.20;;
54193;SDS011;40102;50.906;6.972;2022-07-23T10:41:00;8.00;;;6.13;;
54193;SDS011;40102;50.906;6.972;2022-07-23T10:43:28;10.02;;;7.82;;
54193;SDS011;40102;50.906;6.972;2022-07-23T10:45:54;7.90;;;6.60;;
54193;SDS011;40102;50.906;6.972;2022-07-23T10:48:24;8.63;;;6.45;;
54193;SDS011;40102;50.906;6.972;2022-07-23T10:51:13;10.30;;;7.80;;
54193;SDS011;40102;50.906;6.972;2022-07-23T10:53:53;8.93;;;6.28;;
54193;SDS011;40102;50.906;6.972;2022-07-23T10:59:21;7.47;;;6.65;;
54193;SDS011;40102;50.906;6.972;2022-07-23T11:01:46;7.25;;;5.70;;
54193;SDS011;40102;50.906;6.972;2022-07-23T11:04:12;7.53;;;5.20;;
54193;SDS011;40102;50.906;6.972;2022-07-23T11:20:26;5.03;;;4.30;;
54193;SDS011;40102;50.906;6.972;2022-07-23T11:22:52;5.47;;;4.60;;
54193;SDS011;40102;50.906;6.972;2022-07-23T11:27:47;6.60;;;4.23;;
54193;SDS011;40102;50.906;6.972;2022-07-23T11:32:52;9.38;;;5.25;;
54193;SDS011;40102;50.906;6.972;2022-07-23T11:35:33;6.40;;;4.22;;
54193;SDS011;40102;50.906;6.972;2022-07-23T11:38:04;4.57;;;3.90;;
54193;SDS011;40102;50.906;6.972;2022-07-23T11:40:30;6.45;;;4.20;;
54193;SDS011;40102;50.906;6.972;2022-07-23T11:45:22;5.90;;;3.92;;
54193;SDS011;40102;50.906;6.972;2022-07-23T11:47:50;6.38;;;4.18;;
54193;SDS011;40102;50.906;6.972;2022-07-23T11:50:15;5.53;;;4.60;;
54193;SDS011;40102;50.906;6.972;2022-07-23T11:52:41;6.45;;;4.97;;
54193;SDS011;40102;50.906;6.972;2022-07-23T11:55:08;6.10;;;4.30;;
54193;SDS011;40102;50.906;6.972;2022-07-23T11:57:36;9.80;;;4.90;;
54193;SDS011;40102;50.906;6.972;2022-07-23T12:00:05;7.25;;;4.60;;
54193;SDS011;40102;50.906;6.972;2022-07-23T12:02:31;7.78;;;5.00;;
54193;SDS011;40102;50.906;6.972;2022-07-23T12:04:57;5.93;;;4.28;;
54193;SDS011;40102;50.906;6.972;2022-07-23T12:07:30;5.05;;;3.88;;
54193;SDS011;40102;50.906;6.972;2022-07-23T12:10:03;6.45;;;4.53;;
54193;SDS011;40102;50.906;6.972;2022-07-23T12:12:38;4.93;;;4.13;;
54193;SDS011;40102;50.906;6.972;2022-07-23T12:15:06;4.90;;;3.60;;
54193;SDS011;40102;50.906;6.972;2022-07-23T12:17:34;4.10;;;3.40;;
54193;SDS011;40102;50.906;6.972;2022-07-23T12:20:02;3.42;;;3.13;;
54193;SDS011;40102;50.906;6.972;2022-07-23T12:25:04;5.80;;;3.60;;
54193;SDS011;40102;50.906;6.972;2022-07-23T12:27:32;5.57;;;4.20;;
54193;SDS011;40102;50.906;6.972;2022-07-23T12:29:57;5.47;;;3.90;;
54193;SDS011;40102;50.906;6.972;2022-07-23T12:32:27;4.50;;;3.78;;
54193;SDS011;40102;50.906;6.972;2022-07-23T12:35:14;6.90;;;4.50;;
54193;SDS011;40102;50.906;6.972;2022-07-23T12:37:40;5.55;;;3.80;;
54193;SDS011;40102;50.906;6.972;2022-07-23T12:40:20;4.40;;;3.33;;
54193;SDS011;40102;50.906;6.972;2022-07-23T12:42:54;9.27;;;4.68;;
54193;SDS011;40102;50.906;6.972;2022-07-23T12:45:27;4.03;;;3.20;;
54193;SDS011;40102;50.906;6.972;2022-07-23T12:50:34;5.82;;;3.20;;
54193;SDS011;40102;50.906;6.972;2022-07-23T12:53:04;5.25;;;3.95;;
54193;SDS011;40102;50.906;6.972;2022-07-23T12:55:31;5.22;;;3.17;;
54193;SDS011;40102;50.906;6.972;2022-07-23T12:58:07;5.30;;;3.00;;
54193;SDS011;40102;50.906;6.972;2022-07-23T13:00:52;5.88;;;2.90;;
54193;SDS011;40102;50.906;6.972;2022-07-23T13:03:25;4.13;;;3.30;;
54193;SDS011;40102;50.906;6.972;2022-07-23T13:06:17;7.43;;;2.90;;
54193;SDS011;40102;50.906;6.972;2022-07-23T13:08:42;4.07;;;2.80;;
54193;SDS011;40102;50.906;6.972;2022-07-23T13:11:07;3.88;;;3.00;;
54193;SDS011;40102;50.906;6.972;2022-07-23T13:13:34;4.43;;;3.63;;
54193;SDS011;40102;50.906;6.972;2022-07-23T13:16:00;5.75;;;3.35;;
54193;SDS011;40102;50.906;6.972;2022-07-23T13:18:27;4.03;;;3.17;;
54193;SDS011;40102;50.906;6.972;2022-07-23T13:20:53;3.35;;;3.03;;
54193;SDS011;40102;50.906;6.972;2022-07-23T13:23:19;3.80;;;2.75;;
54193;SDS011;40102;50.906;6.972;2022-07-23T13:25:45;4.78;;;2.72;;
54193;SDS011;40102;50.906;6.972;2022-07-23T13:28:11;4.95;;;2.83;;
54193;SDS011;40102;50.906;6.972;2022-07-23T13:30:38;4.40;;;2.60;;
54193;SDS011;40102;50.906;6.972;2022-07-23T13:33:05;3.30;;;2.58;;
54193;SDS011;40102;50.906;6.972;2022-07-23T13:35:30;4.07;;;2.47;;
54193;SDS011;40102;50.906;6.972;2022-07-23T13:37:57;3.28;;;2.78;;
54193;SDS011;40102;50.906;6.972;2022-07-23T13:40:23;4.60;;;2.38;;
54193;SDS011;40102;50.906;6.972;2022-07-23T13:42:48;5.13;;;2.55;;
54193;SDS011;40102;50.906;6.972;2022-07-23T13:45:14;2.53;;;2.00;;
54193;SDS011;40102;50.906;6.972;2022-07-23T13:47:40;3.25;;;2.70;;
54193;SDS011;40102;50.906;6.972;2022-07-23T13:50:05;3.78;;;2.80;;
54193;SDS011;40102;50.906;6.972;2022-07-23T13:52:31;3.97;;;2.58;;
54193;SDS011;40102;50.906;6.972;2022-07-23T13:54:59;3.22;;;2.30;;
54193;SDS011;40102;50.906;6.972;2022-07-23T13:57:29;3.03;;;2.40;;
54193;SDS011;40102;50.906;6.972;2022-07-23T13:59:55;3.00;;;2.20;;
54193;SDS011;40102;50.906;6.972;2022-07-23T14:02:21;3.88;;;2.25;;
54193;SDS011;40102;50.906;6.972;2022-07-23T14:04:46;3.80;;;2.30;;
54193;SDS011;40102;50.906;6.972;2022-07-23T14:07:12;2.92;;;2.28;;
54193;SDS011;40102;50.906;6.972;2022-07-23T14:09:37;4.57;;;2.25;;
54193;SDS011;40102;50.906;6.972;2022-07-23T14:12:03;3.70;;;2.13;;
54193;SDS011;40102;50.906;6.972;2022-07-23T14:14:30;5.65;;;2.60;;
54193;SDS011;40102;50.906;6.972;2022-07-23T14:16:55;3.55;;;2.10;;
54193;SDS011;40102;50.906;6.972;2022-07-23T14:19:22;3.25;;;2.25;;
54193;SDS011;40102;50.906;6.972;2022-07-23T14:21:48;3.30;;;2.30;;
54193;SDS011;40102;50.906;6.972;2022-07-23T14:24:13;4.78;;;2.20;;
54193;SDS011;40102;50.906;6.972;2022-07-23T14:26:39;3.60;;;2.22;;
54193;SDS011;40102;50.906;6.972;2022-07-23T14:29:05;5.38;;;2.17;;
54193;SDS011;40102;50.906;6.972;2022-07-23T14:31:30;3.75;;;2.00;;
54193;SDS011;40102;50.906;6.972;2022-07-23T14:33:56;4.45;;;2.30;;
54193;SDS011;40102;50.906;6.972;2022-07-23T14:36:21;2.90;;;2.35;;
54193;SDS011;40102;50.906;6.972;2022-07-23T14:38:47;2.47;;;1.70;;
54193;SDS011;40102;50.906;6.972;2022-07-23T14:41:12;5.35;;;2.00;;
54193;SDS011;40102;50.906;6.972;2022-07-23T14:43:38;3.45;;;1.90;;
54193;SDS011;40102;50.906;6.972;2022-07-23T14:46:03;3.95;;;2.08;;
54193;SDS011;40102;50.906;6.972;2022-07-23T14:48:29;2.72;;;1.98;;
54193;SDS011;40102;50.906;6.972;2022-07-23T14:50:54;2.95;;;2.30;;
54193;SDS011;40102;50.906;6.972;2022-07-23T14:53:19;3.45;;;2.30;;
54193;SDS011;40102;50.906;6.972;2022-07-23T14:55:45;2.40;;;1.98;;
54193;SDS011;40102;50.906;6.972;2022-07-23T14:58:11;2.35;;;2.00;;
54193;SDS011;40102;50.906;6.972;2022-07-23T15:00:36;2.70;;;2.10;;
54193;SDS011;40102;50.906;6.972;2022-07-23T15:03:04;4.25;;;2.42;;
54193;SDS011;40102;50.906;6.972;2022-07-23T15:05:46;3.75;;;2.20;;
54193;SDS011;40102;50.906;6.972;2022-07-23T15:08:12;3.58;;;2.00;;
54193;SDS011;40102;50.906;6.972;2022-07-23T15:10:37;3.45;;;2.35;;
54193;SDS011;40102;50.906;6.972;2022-07-23T15:13:03;2.50;;;2.00;;
54193;SDS011;40102;50.906;6.972;2022-07-23T15:18:28;3.42;;;2.17;;
54193;SDS011;40102;50.906;6.972;2022-07-23T15:23:40;3.58;;;2.20;;
54193;SDS011;40102;50.906;6.972;2022-07-23T15:29:19;2.92;;;2.30;;
54193;SDS011;40102;50.906;6.972;2022-07-23T15:31:59;3.25;;;2.03;;
54193;SDS011;40102;50.906;6.972;2022-07-23T15:34:28;3.72;;;2.00;;
54193;SDS011;40102;50.906;6.972;2022-07-23T15:37:00;3.55;;;2.10;;
54193;SDS011;40102;50.906;6.972;2022-07-23T15:39:26;3.15;;;2.00;;
54193;SDS011;40102;50.906;6.972;2022-07-23T15:41:52;2.20;;;1.95;;
54193;SDS011;40102;50.906;6.972;2022-07-23T15:44:17;2.35;;;1.85;;